Art, Texas
Current Conditions -  °F | °C
As of 7:50 AM on Saturday 01 Nov 2014 (Local Time) from KAQO Reporting Station
Clear Clear  
Wind Chill: 43°   Ceiling: Unl
Heat Index: 43°   Visibility: 10mi
Dew Point: 36°   Wind: 0mph
Humidity: 76%   Direction: NA
Pressure: 30.42"   Gusts: NA
Location:  30.74°N, 99.11°W
Report Text: KAQO 011250Z AUTO 00000KT 10SM CLR 06/02 A3042 RMK AO2
Loading
Personal Weather Stations






























Interactive Weather Map
Tropical Storm Tracking
New forecast layout! Learn more

10-Day Weather Forecast

Advertisements
Track Severe Weather on mobile